createdAt,value
2022-08-03T00:02:19.954Z,100900.56
2022-08-03T00:04:48.210Z,100902.16
2022-08-03T00:07:16.680Z,100899.00
2022-08-03T00:09:45.204Z,100897.22
2022-08-03T00:12:13.739Z,100890.97
2022-08-03T00:14:42.365Z,100898.25
2022-08-03T00:17:10.831Z,100890.09
2022-08-03T00:19:39.090Z,100894.50
2022-08-03T00:22:07.412Z,100892.78
2022-08-03T00:24:36.683Z,100897.94
2022-08-03T00:27:04.962Z,100900.38
2022-08-03T00:29:33.326Z,100900.78
2022-08-03T00:32:24.084Z,100906.53
2022-08-03T00:34:57.784Z,100896.75
2022-08-03T00:37:41.271Z,100902.75
2022-08-03T00:40:15.468Z,100904.84
2022-08-03T00:43:05.115Z,100904.16
2022-08-03T00:45:35.741Z,100903.66
2022-08-03T00:48:07.148Z,100905.44
2022-08-03T00:50:55.498Z,100900.94
2022-08-03T00:53:24.608Z,100893.50
2022-08-03T00:55:53.190Z,100892.78
2022-08-03T00:58:21.490Z,100887.09
2022-08-03T01:00:50.638Z,100886.66
2022-08-03T01:03:18.949Z,100895.25
2022-08-03T01:06:15.701Z,100891.94
2022-08-03T01:08:55.417Z,100894.34
2022-08-03T01:11:30.687Z,100890.78
2022-08-03T01:14:48.892Z,100890.63
2022-08-03T01:17:24.792Z,100892.53
2022-08-03T01:20:02.712Z,100894.44
2022-08-03T01:23:09.092Z,100883.31
2022-08-03T01:25:46.302Z,100888.47
2022-08-03T01:28:59.897Z,100889.47
2022-08-03T01:33:00.340Z,100885.84
2022-08-03T01:34:46.037Z,100893.78
2022-08-03T01:37:20.402Z,100885.84
2022-08-03T01:39:49.966Z,100888.38
2022-08-03T01:42:19.002Z,100879.53
2022-08-03T01:44:49.181Z,100883.81
2022-08-03T01:47:22.896Z,100875.41
2022-08-03T01:49:52.763Z,100876.94
2022-08-03T01:52:22.325Z,100879.38
2022-08-03T01:54:52.330Z,100870.00
2022-08-03T01:57:21.610Z,100873.00
2022-08-03T01:59:51.293Z,100870.13
2022-08-03T02:02:33.379Z,100870.06
2022-08-03T02:05:10.691Z,100870.13
2022-08-03T02:07:42.142Z,100871.31
2022-08-03T02:10:13.162Z,100876.53
2022-08-03T02:12:45.911Z,100871.31
2022-08-03T02:15:17.238Z,100875.66
2022-08-03T02:17:48.152Z,100876.13
2022-08-03T02:20:16.867Z,100879.69
2022-08-03T02:22:45.732Z,100865.22
2022-08-03T02:25:15.439Z,100868.59
2022-08-03T02:27:52.474Z,100863.56
2022-08-03T02:30:21.525Z,100865.81
2022-08-03T02:32:55.223Z,100860.41
2022-08-03T02:35:25.837Z,100860.13
2022-08-03T02:38:00.387Z,100854.66
2022-08-03T02:40:31.593Z,100857.66
2022-08-03T02:43:08.167Z,100852.56
2022-08-03T02:45:38.551Z,100858.63
2022-08-03T02:48:10.145Z,100850.25
2022-08-03T02:50:39.314Z,100857.75
2022-08-03T02:53:08.444Z,100858.63
2022-08-03T02:55:43.126Z,100854.69
2022-08-03T02:58:15.228Z,100847.03
2022-08-03T03:00:45.481Z,100858.22
2022-08-03T03:03:14.714Z,100857.41
2022-08-03T03:05:53.089Z,100855.63
2022-08-03T03:08:28.781Z,100846.88
2022-08-03T03:11:01.040Z,100851.84
2022-08-03T03:13:31.055Z,100854.47
2022-08-03T03:16:01.894Z,100854.94
2022-08-03T03:18:32.529Z,100863.16
2022-08-03T03:21:02.584Z,100857.63
2022-08-03T03:23:32.373Z,100860.09
2022-08-03T03:26:03.380Z,100857.78
2022-08-03T03:28:32.465Z,100856.19
2022-08-03T03:31:01.444Z,100855.56
2022-08-03T03:33:29.854Z,100851.78
2022-08-03T03:35:59.207Z,100858.50
2022-08-03T03:38:28.264Z,100864.75
2022-08-03T03:40:57.034Z,100856.28
2022-08-03T03:43:25.626Z,100857.03
2022-08-03T03:45:55.233Z,100857.88
2022-08-03T03:48:25.903Z,100860.44
2022-08-03T03:50:54.334Z,100857.97
2022-08-03T03:53:22.770Z,100861.31
2022-08-03T03:55:59.530Z,100868.94
2022-08-03T03:58:32.828Z,100861.81
2022-08-03T04:01:01.689Z,100863.53
2022-08-03T04:03:30.735Z,100866.31
2022-08-03T04:06:17.562Z,100859.84
2022-08-03T04:09:04.768Z,100866.44
2022-08-03T04:11:44.244Z,100867.94
2022-08-03T04:14:16.975Z,100858.25
2022-08-03T04:16:51.043Z,100871.22
2022-08-03T04:19:27.515Z,100867.16
2022-08-03T04:21:59.994Z,100869.28
2022-08-03T04:24:35.183Z,100871.88
2022-08-03T04:27:05.809Z,100873.81
2022-08-03T04:29:38.648Z,100875.81
2022-08-03T04:32:17.458Z,100877.03
2022-08-03T04:34:47.240Z,100884.88
2022-08-03T04:37:21.885Z,100881.69
2022-08-03T04:39:51.386Z,100879.47
2022-08-03T04:42:22.161Z,100885.09
2022-08-03T04:44:54.004Z,100882.19
2022-08-03T04:47:23.954Z,100878.75
2022-08-03T04:49:53.023Z,100889.53
2022-08-03T04:52:21.253Z,100888.03
2022-08-03T04:54:50.920Z,100894.63
2022-08-03T04:57:22.894Z,100894.50
2022-08-03T05:00:02.059Z,100896.38
2022-08-03T05:02:33.011Z,100901.28
2022-08-03T05:05:01.255Z,100904.59
2022-08-03T05:07:36.152Z,100904.97
2022-08-03T05:10:16.186Z,100900.75
2022-08-03T05:12:46.856Z,100903.38
2022-08-03T05:15:16.166Z,100901.19
2022-08-03T05:17:44.474Z,100902.53
2022-08-03T05:20:12.925Z,100901.03
2022-08-03T05:22:41.368Z,100900.03
2022-08-03T05:25:09.901Z,100899.09
2022-08-03T05:27:45.988Z,100897.44
2022-08-03T05:30:29.786Z,100906.66
2022-08-03T05:33:04.094Z,100905.69
2022-08-03T05:35:56.072Z,100906.44
2022-08-03T05:38:24.061Z,100905.94
2022-08-03T05:41:23.495Z,100902.34
2022-08-03T05:43:47.071Z,100901.25
2022-08-03T05:46:15.810Z,100911.75
2022-08-03T05:48:44.337Z,100904.59
2022-08-03T05:51:14.080Z,100901.16
2022-08-03T05:53:43.678Z,100899.84
2022-08-03T05:56:14.639Z,100900.75
2022-08-03T05:58:48.340Z,100907.00
2022-08-03T06:01:17.706Z,100904.53
2022-08-03T06:03:46.712Z,100909.81
2022-08-03T06:06:15.622Z,100910.09
2022-08-03T06:08:44.856Z,100912.72
2022-08-03T06:11:13.868Z,100905.31
2022-08-03T06:13:42.238Z,100918.47
2022-08-03T06:16:11.051Z,100917.59
2022-08-03T06:18:41.131Z,100922.78
2022-08-03T06:21:14.266Z,100929.03
2022-08-03T06:23:54.532Z,100934.09
2022-08-03T06:26:25.762Z,100928.59
2022-08-03T06:28:55.431Z,100929.28
2022-08-03T06:31:32.780Z,100942.81
2022-08-03T06:34:34.096Z,100936.78
2022-08-03T06:36:58.502Z,100937.34
2022-08-03T06:39:30.422Z,100941.63
2022-08-03T06:41:59.167Z,100944.34
2022-08-03T06:44:27.317Z,100947.53
2022-08-03T06:46:56.065Z,100946.28
2022-08-03T06:49:24.573Z,100945.13
2022-08-03T06:52:03.427Z,100949.53
2022-08-03T06:54:36.058Z,100952.63
2022-08-03T06:57:05.201Z,100954.53
2022-08-03T07:00:09.402Z,100952.97
2022-08-03T07:02:21.837Z,100960.72
2022-08-03T07:04:50.740Z,100962.44
2022-08-03T07:07:19.606Z,100950.47
2022-08-03T07:09:56.587Z,100958.69
2022-08-03T07:12:27.900Z,100953.44
2022-08-03T07:15:00.803Z,100957.00
2022-08-03T07:17:31.858Z,100954.69
2022-08-03T07:20:01.740Z,100958.13
2022-08-03T07:22:30.091Z,100957.38
2022-08-03T07:24:58.748Z,100963.41
2022-08-03T07:27:28.799Z,100964.84
2022-08-03T07:29:58.227Z,100957.31
2022-08-03T07:32:26.424Z,100964.78
2022-08-03T07:34:58.483Z,100950.81
2022-08-03T07:37:29.968Z,100961.22
2022-08-03T07:39:59.071Z,100956.50
2022-08-03T07:42:30.568Z,100959.66
2022-08-03T07:44:59.640Z,100960.94
2022-08-03T07:47:35.230Z,100966.34
2022-08-03T07:50:06.750Z,100962.78
2022-08-03T07:52:53.511Z,100969.50
2022-08-03T07:55:26.119Z,100966.25
2022-08-03T07:58:07.998Z,100963.28
2022-08-03T08:00:37.067Z,100968.09
2022-08-03T08:03:05.592Z,100966.97
2022-08-03T08:05:34.607Z,100967.25
2022-08-03T08:08:04.085Z,100971.94
2022-08-03T08:10:33.298Z,100970.22
2022-08-03T08:13:02.020Z,100973.84
2022-08-03T08:15:30.573Z,100967.88
2022-08-03T08:18:01.332Z,100972.00
2022-08-03T08:20:34.921Z,100966.25
2022-08-03T08:23:24.849Z,100965.53
2022-08-03T08:25:57.529Z,100968.69
2022-08-03T08:28:32.541Z,100969.28
2022-08-03T08:31:02.508Z,100965.56
2022-08-03T08:33:48.337Z,100962.13
2022-08-03T08:36:21.938Z,100959.59
2022-08-03T08:38:50.453Z,100952.88
2022-08-03T08:41:18.658Z,100961.31
2022-08-03T08:43:47.057Z,100960.28
2022-08-03T08:46:23.515Z,100960.56
2022-08-03T08:48:54.056Z,100962.16
2022-08-03T08:51:23.097Z,100957.59
2022-08-03T08:53:53.990Z,100957.84
2022-08-03T08:56:25.807Z,100965.84
2022-08-03T08:59:03.998Z,100958.72
2022-08-03T09:01:33.661Z,100957.28
2022-08-03T09:04:03.089Z,100965.03
2022-08-03T09:06:32.086Z,100958.00
2022-08-03T09:09:03.727Z,100960.91
2022-08-03T09:11:52.396Z,100951.31
2022-08-03T09:14:35.187Z,100961.91
2022-08-03T09:17:10.258Z,100965.00
2022-08-03T09:20:08.037Z,100960.31
2022-08-03T09:22:36.557Z,100956.59
2022-08-03T09:25:24.465Z,100957.91
2022-08-03T09:27:54.693Z,100952.72
2022-08-03T09:30:34.640Z,100953.00
2022-08-03T09:33:06.609Z,100952.34
2022-08-03T09:35:53.666Z,100952.63
2022-08-03T09:38:27.633Z,100953.59
2022-08-03T09:40:59.917Z,100946.44
2022-08-03T09:43:29.355Z,100953.59
2022-08-03T09:46:05.385Z,100944.03
2022-08-03T09:48:35.652Z,100943.88
2022-08-03T09:51:13.293Z,100943.59
2022-08-03T09:53:59.740Z,100930.78
2022-08-03T09:56:46.417Z,100940.59
2022-08-03T09:59:24.709Z,100935.91
2022-08-03T10:01:56.139Z,100934.44
2022-08-03T10:04:25.147Z,100937.03
2022-08-03T10:07:10.971Z,100931.84
2022-08-03T10:09:55.214Z,100932.72
2022-08-03T10:12:23.736Z,100928.13
2022-08-03T10:14:53.237Z,100933.28
2022-08-03T10:17:22.467Z,100922.25
2022-08-03T10:19:50.749Z,100920.94
2022-08-03T10:22:34.190Z,100920.22
2022-08-03T10:25:09.078Z,100912.38
2022-08-03T10:27:40.028Z,100917.78
2022-08-03T10:30:11.163Z,100905.78
2022-08-03T10:32:46.757Z,100906.63
2022-08-03T10:35:21.688Z,100904.94
2022-08-03T10:37:56.952Z,100910.38
2022-08-03T10:43:23.426Z,100898.81
2022-08-03T10:45:52.909Z,100895.66
2022-08-03T10:48:21.858Z,100883.22
2022-08-03T10:50:50.967Z,100893.22
2022-08-03T10:53:39.278Z,100895.88
2022-08-03T10:56:52.015Z,100887.50
2022-08-03T10:59:41.568Z,100893.31
2022-08-03T11:02:10.319Z,100882.50
2022-08-03T11:04:38.487Z,100885.06
2022-08-03T11:07:24.746Z,100881.16
2022-08-03T11:09:55.120Z,100886.03
2022-08-03T11:12:32.017Z,100884.00
2022-08-03T11:15:05.798Z,100875.44
2022-08-03T11:17:46.103Z,100877.03
2022-08-03T11:21:00.367Z,100866.28
2022-08-03T11:24:02.434Z,100863.28
2022-08-03T11:26:35.087Z,100870.06
2022-08-03T11:29:31.939Z,100861.41
2022-08-03T11:32:00.490Z,100863.94
2022-08-03T11:34:28.779Z,100862.63
2022-08-03T11:37:21.540Z,100865.66
2022-08-03T11:39:53.317Z,100865.66
2022-08-03T11:42:24.869Z,100866.66
2022-08-03T11:44:54.258Z,100861.44
2022-08-03T11:47:24.426Z,100862.66
2022-08-03T11:49:59.397Z,100854.44
2022-08-03T11:52:35.160Z,100848.75
2022-08-03T11:55:09.667Z,100852.03
2022-08-03T11:59:10.891Z,100847.19
2022-08-03T12:00:32.608Z,100845.03
2022-08-03T12:03:07.727Z,100844.78
2022-08-03T12:05:56.633Z,100834.72
2022-08-03T12:08:28.083Z,100836.28
2022-08-03T12:10:58.136Z,100829.50
2022-08-03T12:14:45.691Z,100835.13
2022-08-03T12:16:20.143Z,100828.66
2022-08-03T12:18:57.562Z,100834.88
2022-08-03T12:21:26.136Z,100825.47
2022-08-03T12:24:00.771Z,100830.63
2022-08-03T12:26:30.666Z,100831.22
2022-08-03T12:28:59.073Z,100831.81
2022-08-03T12:31:27.494Z,100825.38
2022-08-03T12:34:04.382Z,100830.19
2022-08-03T12:36:35.072Z,100815.25
2022-08-03T12:39:09.753Z,100825.59
2022-08-03T12:41:41.001Z,100826.31
2022-08-03T12:44:10.156Z,100829.78
2022-08-03T12:46:46.956Z,100830.97
2022-08-03T12:49:19.191Z,100830.41
2022-08-03T12:51:47.576Z,100827.00
2022-08-03T12:54:25.119Z,100826.13
2022-08-03T12:57:01.153Z,100827.84
2022-08-03T12:59:53.551Z,100825.06
2022-08-03T13:02:24.915Z,100819.47
2022-08-03T13:04:55.315Z,100812.59
2022-08-03T13:07:23.952Z,100819.59
2022-08-03T13:09:56.581Z,100815.88
2022-08-03T13:12:28.104Z,100804.22
2022-08-03T13:14:58.746Z,100813.72
2022-08-03T13:17:28.190Z,100803.19
2022-08-03T13:19:56.561Z,100805.16
2022-08-03T13:22:30.773Z,100804.69
2022-08-03T13:25:01.383Z,100801.84
2022-08-03T13:28:04.446Z,100804.13
2022-08-03T13:30:28.183Z,100804.28
2022-08-03T13:33:00.648Z,100797.84
2022-08-03T13:35:29.215Z,100794.75
2022-08-03T13:37:57.416Z,100798.69
2022-08-03T13:40:30.275Z,100798.38
2022-08-03T13:42:59.257Z,100796.31
2022-08-03T13:45:27.993Z,100794.25
2022-08-03T13:47:56.342Z,100789.34
2022-08-03T13:50:24.740Z,100783.91
2022-08-03T13:52:53.061Z,100779.66
2022-08-03T13:55:21.179Z,100775.59
2022-08-03T13:58:04.488Z,100779.75
2022-08-03T14:00:35.416Z,100772.19
2022-08-03T14:03:13.789Z,100769.88
2022-08-03T14:05:43.971Z,100773.22
2022-08-03T14:08:12.998Z,100766.34
2022-08-03T14:10:43.741Z,100759.06
2022-08-03T14:13:16.876Z,100765.38
2022-08-03T14:15:51.197Z,100759.28
2022-08-03T14:18:28.365Z,100760.91
2022-08-03T14:21:06.451Z,100752.88
2022-08-03T14:23:37.946Z,100748.66
2022-08-03T14:26:08.015Z,100749.44
2022-08-03T14:28:36.863Z,100744.63
2022-08-03T14:31:08.103Z,100743.44
2022-08-03T14:33:43.957Z,100734.38
2022-08-03T14:36:12.186Z,100741.34
2022-08-03T14:38:40.316Z,100742.25
2022-08-03T14:41:19.723Z,100739.31
2022-08-03T14:44:00.493Z,100721.44
2022-08-03T14:46:32.444Z,100732.72
2022-08-03T14:50:33.073Z,100726.91
2022-08-03T14:51:51.491Z,100723.69
2022-08-03T14:54:23.197Z,100728.13
2022-08-03T14:56:51.954Z,100711.41
2022-08-03T14:59:20.132Z,100715.38
2022-08-03T15:02:02.256Z,100716.75
2022-08-03T15:04:35.131Z,100717.19
2022-08-03T15:07:03.900Z,100714.28
2022-08-03T15:09:32.249Z,100711.25
2022-08-03T15:12:01.140Z,100710.09
2022-08-03T15:14:33.387Z,100707.38
2022-08-03T15:17:03.906Z,100707.84
2022-08-03T15:20:01.595Z,100703.25
2022-08-03T15:26:52.705Z,100695.88
2022-08-03T15:30:08.754Z,100695.75
2022-08-03T15:32:09.925Z,100693.06
2022-08-03T15:34:38.710Z,100689.31
2022-08-03T15:37:16.465Z,100686.75
2022-08-03T15:39:59.142Z,100688.38
2022-08-03T15:42:30.892Z,100680.22
2022-08-03T15:45:00.124Z,100690.78
2022-08-03T15:47:28.565Z,100679.53
2022-08-03T15:49:57.226Z,100671.66
2022-08-03T15:52:25.996Z,100669.25
2022-08-03T15:54:54.524Z,100665.59
2022-08-03T15:57:24.017Z,100670.41
2022-08-03T15:59:52.905Z,100665.59
2022-08-03T16:02:21.510Z,100669.66
2022-08-03T16:04:50.105Z,100663.50
2022-08-03T16:07:38.885Z,100659.38
2022-08-03T16:10:07.760Z,100657.00
2022-08-03T16:12:37.286Z,100655.66
2022-08-03T16:15:06.625Z,100651.22
2022-08-03T16:17:35.305Z,100651.06
2022-08-03T16:20:10.754Z,100654.09
2022-08-03T16:22:54.980Z,100649.50
2022-08-03T16:25:25.020Z,100654.63
2022-08-03T16:28:03.157Z,100640.69
2022-08-03T16:30:36.955Z,100648.00
2022-08-03T16:33:05.610Z,100642.91
2022-08-03T16:35:34.197Z,100647.16
2022-08-03T16:38:07.812Z,100647.34
2022-08-03T16:40:37.907Z,100646.16
2022-08-03T16:43:17.846Z,100649.59
2022-08-03T16:45:47.970Z,100650.44
2022-08-03T16:48:17.487Z,100643.66
2022-08-03T16:50:46.236Z,100645.50
2022-08-03T16:53:16.310Z,100653.28
2022-08-03T16:55:53.717Z,100652.59
2022-08-03T16:58:34.481Z,100637.97
2022-08-03T17:01:21.829Z,100639.72
2022-08-03T17:04:03.353Z,100640.41
2022-08-03T17:06:38.292Z,100642.13
2022-08-03T17:09:18.070Z,100637.00
2022-08-03T17:11:49.350Z,100641.44
2022-08-03T17:14:28.276Z,100645.44
2022-08-03T17:17:01.801Z,100641.72
2022-08-03T17:19:32.302Z,100642.91
2022-08-03T17:22:19.273Z,100642.03
2022-08-03T17:24:52.358Z,100646.63
2022-08-03T17:28:48.700Z,100645.44
2022-08-03T17:30:16.188Z,100649.88
2022-08-03T17:32:56.968Z,100652.28
2022-08-03T17:35:36.610Z,100654.59
2022-08-03T17:38:11.844Z,100648.50
2022-08-03T17:40:48.107Z,100649.00
2022-08-03T17:44:13.352Z,100654.25
2022-08-03T17:46:11.094Z,100651.88
2022-08-03T17:48:42.099Z,100660.38
2022-08-03T17:51:24.379Z,100660.50
2022-08-03T17:54:02.672Z,100663.75
2022-08-03T17:56:46.372Z,100662.69
2022-08-03T17:59:52.479Z,100668.13
2022-08-03T18:03:08.237Z,100668.66
2022-08-03T18:06:12.252Z,100673.63
2022-08-03T18:08:33.182Z,100674.31
2022-08-03T18:14:16.576Z,100676.34
2022-08-03T18:17:10.392Z,100665.78
2022-08-03T18:20:02.156Z,100676.13
2022-08-03T18:22:30.576Z,100680.00
2022-08-03T18:24:59.930Z,100677.59
2022-08-03T18:27:42.411Z,100679.00
2022-08-03T18:30:14.532Z,100677.22
2022-08-03T18:32:44.384Z,100678.09
2022-08-03T18:35:53.312Z,100678.03
2022-08-03T18:38:19.871Z,100678.19
2022-08-03T18:40:55.116Z,100680.22
2022-08-03T18:43:47.555Z,100673.06
2022-08-03T18:47:24.510Z,100678.34
2022-08-03T18:50:13.891Z,100671.97
2022-08-03T18:52:53.199Z,100673.34
2022-08-03T18:55:33.415Z,100667.53
2022-08-03T18:58:15.890Z,100680.56
2022-08-03T19:01:05.769Z,100678.72
2022-08-03T19:04:05.041Z,100682.81
2022-08-03T19:06:45.972Z,100686.59
2022-08-03T19:09:50.240Z,100686.41
2022-08-03T19:12:32.396Z,100688.03
2022-08-03T19:18:10.474Z,100691.28
2022-08-03T19:20:41.681Z,100686.25
2022-08-03T19:23:16.714Z,100696.41
2022-08-03T19:25:46.213Z,100696.34
2022-08-03T19:28:17.095Z,100691.72
2022-08-03T19:30:53.786Z,100705.84
2022-08-03T19:33:25.905Z,100700.25
2022-08-03T19:35:59.365Z,100705.91
2022-08-03T19:38:29.867Z,100703.88
2022-08-03T19:41:03.277Z,100701.63
2022-08-03T19:43:52.933Z,100703.13
2022-08-03T19:46:30.287Z,100709.75
2022-08-03T19:49:15.044Z,100709.19
2022-08-03T19:52:00.616Z,100715.72
2022-08-03T19:54:53.266Z,100713.03
2022-08-03T19:57:27.563Z,100722.44
2022-08-03T19:59:57.621Z,100719.44
2022-08-03T20:02:28.088Z,100726.59
2022-08-03T20:05:00.594Z,100723.78
2022-08-03T20:07:33.260Z,100731.19
2022-08-03T20:10:05.053Z,100731.63
2022-08-03T20:15:31.095Z,100737.38
2022-08-03T20:18:00.920Z,100736.81
2022-08-03T20:20:33.371Z,100732.03
2022-08-03T20:23:07.628Z,100742.56
2022-08-03T20:25:57.096Z,100739.78
2022-08-03T20:28:50.103Z,100744.91
2022-08-03T20:31:25.127Z,100744.38
2022-08-03T20:34:01.203Z,100744.91
2022-08-03T20:36:30.240Z,100744.66
2022-08-03T20:38:59.584Z,100741.50
2022-08-03T20:41:28.280Z,100745.06
2022-08-03T20:44:01.247Z,100747.78
2022-08-03T20:46:41.450Z,100741.81
2022-08-03T20:49:23.045Z,100745.22
2022-08-03T20:51:53.595Z,100743.66
2022-08-03T20:54:29.621Z,100744.66
2022-08-03T20:57:04.255Z,100753.38
2022-08-03T20:59:50.134Z,100750.66
2022-08-03T21:02:30.541Z,100741.81
2022-08-03T21:05:03.238Z,100753.22
2022-08-03T21:08:06.501Z,100751.50
2022-08-03T21:10:41.943Z,100754.06
2022-08-03T21:13:01.803Z,100688.66
2022-08-03T21:13:04.405Z,100671.91
2022-08-03T21:13:08.339Z,100732.94
2022-08-03T21:16:06.700Z,100749.03
2022-08-03T21:18:52.663Z,100766.16
2022-08-03T21:21:23.411Z,100764.69
2022-08-03T21:23:54.011Z,100766.16
2022-08-03T21:26:25.129Z,100764.13
2022-08-03T21:28:56.853Z,100763.06
2022-08-03T21:31:26.926Z,100768.03
2022-08-03T21:33:58.908Z,100770.75
2022-08-03T21:36:29.699Z,100773.22
2022-08-03T21:38:58.368Z,100776.84
2022-08-03T21:41:28.825Z,100782.91
2022-08-03T21:43:59.819Z,100782.47
2022-08-03T21:46:34.709Z,100781.91
2022-08-03T21:50:06.831Z,100777.72
2022-08-03T21:51:59.727Z,100787.19
2022-08-03T21:54:42.072Z,100782.03
2022-08-03T21:57:23.758Z,100788.41
2022-08-03T21:59:58.090Z,100790.09
2022-08-03T22:02:32.106Z,100790.69
2022-08-03T22:05:04.832Z,100793.25
2022-08-03T22:07:34.938Z,100796.53
2022-08-03T22:10:05.994Z,100788.41
2022-08-03T22:12:35.069Z,100798.09
2022-08-03T22:15:07.370Z,100798.66
2022-08-03T22:17:56.030Z,100801.81
2022-08-03T22:20:26.514Z,100798.97
2022-08-03T22:22:57.883Z,100808.28
2022-08-03T22:25:29.719Z,100804.56
2022-08-03T22:28:05.329Z,100813.31
2022-08-03T22:30:34.038Z,100812.13
2022-08-03T22:33:05.299Z,100808.28
2022-08-03T22:35:47.507Z,100815.41
2022-08-03T22:38:18.780Z,100819.84
2022-08-03T22:40:49.252Z,100816.13
2022-08-03T22:43:17.679Z,100815.03
2022-08-03T22:46:09.832Z,100813.31
2022-08-03T22:48:41.306Z,100816.41
2022-08-03T22:51:11.074Z,100824.47
2022-08-03T22:53:40.812Z,100821.03
2022-08-03T22:56:09.609Z,100829.34
2022-08-03T22:58:38.382Z,100821.16
2022-08-03T23:01:12.051Z,100830.31
2022-08-03T23:04:00.591Z,100826.75
2022-08-03T23:06:38.919Z,100836.75
2022-08-03T23:09:10.372Z,100836.81
2022-08-03T23:11:42.995Z,100831.66
2022-08-03T23:14:16.899Z,100828.50
2022-08-03T23:16:47.200Z,100839.09
2022-08-03T23:19:25.089Z,100835.38
2022-08-03T23:22:02.415Z,100836.63
2022-08-03T23:24:37.221Z,100836.25
2022-08-03T23:27:07.713Z,100837.13
2022-08-03T23:29:38.170Z,100841.69
2022-08-03T23:32:07.679Z,100839.81
2022-08-03T23:34:58.508Z,100840.09
2022-08-03T23:37:27.510Z,100835.84
2022-08-03T23:39:57.837Z,100833.72
2022-08-03T23:42:26.914Z,100836.00
2022-08-03T23:45:01.107Z,100838.28
2022-08-03T23:47:46.505Z,100833.69
2022-08-03T23:50:17.518Z,100835.28
2022-08-03T23:52:59.260Z,100826.97
2022-08-03T23:55:28.075Z,100827.16
2022-08-03T23:58:39.133Z,100830.28
